sensor_id;sensor_type;location;lat;lon;timestamp;P1;durP1;ratioP1;P2;durP2;ratioP2
45764;SDS011;31474;45.332;10.230;2023-05-07T00:01:55;26.40;;;21.17;;
45764;SDS011;31474;45.332;10.230;2023-05-07T00:04:21;26.65;;;21.15;;
45764;SDS011;31474;45.332;10.230;2023-05-07T00:06:47;28.48;;;22.10;;
45764;SDS011;31474;45.332;10.230;2023-05-07T00:09:13;25.13;;;20.63;;
45764;SDS011;31474;45.332;10.230;2023-05-07T00:11:39;28.80;;;21.38;;
45764;SDS011;31474;45.332;10.230;2023-05-07T00:14:05;26.63;;;21.67;;
45764;SDS011;31474;45.332;10.230;2023-05-07T00:16:30;31.30;;;22.23;;
45764;SDS011;31474;45.332;10.230;2023-05-07T00:18:56;29.75;;;21.83;;
45764;SDS011;31474;45.332;10.230;2023-05-07T00:21:22;26.02;;;21.45;;
45764;SDS011;31474;45.332;10.230;2023-05-07T00:23:47;26.25;;;20.98;;
45764;SDS011;31474;45.332;10.230;2023-05-07T00:26:13;25.10;;;19.92;;
45764;SDS011;31474;45.332;10.230;2023-05-07T00:28:39;27.58;;;20.10;;
45764;SDS011;31474;45.332;10.230;2023-05-07T00:31:04;24.02;;;19.75;;
45764;SDS011;31474;45.332;10.230;2023-05-07T00:33:30;24.30;;;19.08;;
45764;SDS011;31474;45.332;10.230;2023-05-07T00:35:55;23.55;;;18.48;;
45764;SDS011;31474;45.332;10.230;2023-05-07T00:38:21;23.58;;;19.40;;
45764;SDS011;31474;45.332;10.230;2023-05-07T00:40:47;24.27;;;19.27;;
45764;SDS011;31474;45.332;10.230;2023-05-07T00:43:12;22.80;;;17.52;;
45764;SDS011;31474;45.332;10.230;2023-05-07T00:45:38;21.63;;;17.65;;
45764;SDS011;31474;45.332;10.230;2023-05-07T00:48:04;25.90;;;19.17;;
45764;SDS011;31474;45.332;10.230;2023-05-07T00:50:30;22.33;;;17.42;;
45764;SDS011;31474;45.332;10.230;2023-05-07T00:52:56;26.35;;;18.92;;
45764;SDS011;31474;45.332;10.230;2023-05-07T00:55:23;21.65;;;17.25;;
45764;SDS011;31474;45.332;10.230;2023-05-07T00:57:49;25.98;;;18.70;;
45764;SDS011;31474;45.332;10.230;2023-05-07T01:00:16;21.65;;;17.83;;
45764;SDS011;31474;45.332;10.230;2023-05-07T01:02:43;25.27;;;17.98;;
45764;SDS011;31474;45.332;10.230;2023-05-07T01:05:10;25.23;;;18.75;;
45764;SDS011;31474;45.332;10.230;2023-05-07T01:07:38;23.77;;;17.17;;
45764;SDS011;31474;45.332;10.230;2023-05-07T01:10:06;24.60;;;18.83;;
45764;SDS011;31474;45.332;10.230;2023-05-07T01:12:32;25.67;;;18.77;;
45764;SDS011;31474;45.332;10.230;2023-05-07T01:15:00;24.80;;;18.05;;
45764;SDS011;31474;45.332;10.230;2023-05-07T01:17:26;26.33;;;17.38;;
45764;SDS011;31474;45.332;10.230;2023-05-07T01:19:52;23.30;;;18.40;;
45764;SDS011;31474;45.332;10.230;2023-05-07T01:22:33;20.17;;;17.40;;
45764;SDS011;31474;45.332;10.230;2023-05-07T01:25:02;20.45;;;16.42;;
45764;SDS011;31474;45.332;10.230;2023-05-07T01:27:28;18.65;;;15.88;;
45764;SDS011;31474;45.332;10.230;2023-05-07T01:29:54;22.80;;;16.80;;
45764;SDS011;31474;45.332;10.230;2023-05-07T01:32:27;21.33;;;17.52;;
45764;SDS011;31474;45.332;10.230;2023-05-07T01:35:10;19.60;;;16.40;;
45764;SDS011;31474;45.332;10.230;2023-05-07T01:37:37;25.45;;;17.80;;
45764;SDS011;31474;45.332;10.230;2023-05-07T01:40:04;22.42;;;16.35;;
45764;SDS011;31474;45.332;10.230;2023-05-07T01:42:32;20.38;;;16.60;;
45764;SDS011;31474;45.332;10.230;2023-05-07T01:44:58;22.55;;;17.63;;
45764;SDS011;31474;45.332;10.230;2023-05-07T01:47:24;25.13;;;17.92;;
45764;SDS011;31474;45.332;10.230;2023-05-07T01:49:50;24.95;;;16.85;;
45764;SDS011;31474;45.332;10.230;2023-05-07T01:52:16;22.85;;;16.00;;
45764;SDS011;31474;45.332;10.230;2023-05-07T01:54:42;23.52;;;17.30;;
45764;SDS011;31474;45.332;10.230;2023-05-07T01:57:08;18.85;;;16.23;;
45764;SDS011;31474;45.332;10.230;2023-05-07T01:59:33;24.67;;;15.98;;
45764;SDS011;31474;45.332;10.230;2023-05-07T02:01:59;19.73;;;16.13;;
45764;SDS011;31474;45.332;10.230;2023-05-07T02:04:25;22.80;;;16.33;;
45764;SDS011;31474;45.332;10.230;2023-05-07T02:06:51;22.63;;;17.17;;
45764;SDS011;31474;45.332;10.230;2023-05-07T02:09:17;20.35;;;16.80;;
45764;SDS011;31474;45.332;10.230;2023-05-07T02:11:43;24.08;;;16.50;;
45764;SDS011;31474;45.332;10.230;2023-05-07T02:14:09;18.42;;;15.32;;
45764;SDS011;31474;45.332;10.230;2023-05-07T02:16:35;26.58;;;18.13;;
45764;SDS011;31474;45.332;10.230;2023-05-07T02:19:00;21.90;;;17.02;;
45764;SDS011;31474;45.332;10.230;2023-05-07T02:21:26;18.88;;;15.00;;
45764;SDS011;31474;45.332;10.230;2023-05-07T02:23:52;21.80;;;17.42;;
45764;SDS011;31474;45.332;10.230;2023-05-07T02:26:17;20.83;;;15.57;;
45764;SDS011;31474;45.332;10.230;2023-05-07T02:28:43;18.80;;;15.60;;
45764;SDS011;31474;45.332;10.230;2023-05-07T02:31:09;19.25;;;16.17;;
45764;SDS011;31474;45.332;10.230;2023-05-07T02:33:34;19.27;;;15.77;;
45764;SDS011;31474;45.332;10.230;2023-05-07T02:36:11;21.50;;;15.07;;
45764;SDS011;31474;45.332;10.230;2023-05-07T02:38:37;20.90;;;14.95;;
45764;SDS011;31474;45.332;10.230;2023-05-07T02:41:03;18.65;;;16.30;;
45764;SDS011;31474;45.332;10.230;2023-05-07T02:43:29;20.23;;;16.10;;
45764;SDS011;31474;45.332;10.230;2023-05-07T02:46:28;20.58;;;15.63;;
45764;SDS011;31474;45.332;10.230;2023-05-07T02:48:47;21.10;;;15.80;;
45764;SDS011;31474;45.332;10.230;2023-05-07T02:51:12;20.77;;;17.05;;
45764;SDS011;31474;45.332;10.230;2023-05-07T02:53:38;20.25;;;16.85;;
45764;SDS011;31474;45.332;10.230;2023-05-07T02:56:04;17.50;;;15.25;;
45764;SDS011;31474;45.332;10.230;2023-05-07T02:58:31;21.92;;;16.67;;
45764;SDS011;31474;45.332;10.230;2023-05-07T03:00:57;21.55;;;15.73;;
45764;SDS011;31474;45.332;10.230;2023-05-07T03:03:22;25.27;;;17.05;;
45764;SDS011;31474;45.332;10.230;2023-05-07T03:05:48;18.58;;;16.45;;
45764;SDS011;31474;45.332;10.230;2023-05-07T03:08:14;22.50;;;16.98;;
45764;SDS011;31474;45.332;10.230;2023-05-07T03:10:39;21.63;;;17.10;;
45764;SDS011;31474;45.332;10.230;2023-05-07T03:13:05;21.27;;;17.35;;
45764;SDS011;31474;45.332;10.230;2023-05-07T03:15:31;24.70;;;17.60;;
45764;SDS011;31474;45.332;10.230;2023-05-07T03:17:56;19.60;;;16.75;;
45764;SDS011;31474;45.332;10.230;2023-05-07T03:20:22;22.10;;;15.68;;
45764;SDS011;31474;45.332;10.230;2023-05-07T03:22:48;25.55;;;17.35;;
45764;SDS011;31474;45.332;10.230;2023-05-07T03:25:13;22.67;;;17.05;;
45764;SDS011;31474;45.332;10.230;2023-05-07T03:27:39;23.33;;;17.48;;
45764;SDS011;31474;45.332;10.230;2023-05-07T03:30:07;23.45;;;17.80;;
45764;SDS011;31474;45.332;10.230;2023-05-07T03:32:33;21.40;;;18.08;;
45764;SDS011;31474;45.332;10.230;2023-05-07T03:35:00;24.23;;;18.63;;
45764;SDS011;31474;45.332;10.230;2023-05-07T03:37:26;22.35;;;17.38;;
45764;SDS011;31474;45.332;10.230;2023-05-07T03:39:51;23.90;;;17.15;;
45764;SDS011;31474;45.332;10.230;2023-05-07T03:42:17;22.23;;;17.80;;
45764;SDS011;31474;45.332;10.230;2023-05-07T03:44:43;23.15;;;18.10;;
45764;SDS011;31474;45.332;10.230;2023-05-07T03:47:08;20.30;;;16.65;;
45764;SDS011;31474;45.332;10.230;2023-05-07T03:49:35;23.80;;;17.65;;
45764;SDS011;31474;45.332;10.230;2023-05-07T03:52:01;23.38;;;17.75;;
45764;SDS011;31474;45.332;10.230;2023-05-07T03:54:26;24.73;;;18.10;;
45764;SDS011;31474;45.332;10.230;2023-05-07T03:56:52;24.92;;;18.80;;
45764;SDS011;31474;45.332;10.230;2023-05-07T03:59:18;27.08;;;17.67;;
45764;SDS011;31474;45.332;10.230;2023-05-07T04:01:43;23.23;;;17.80;;
45764;SDS011;31474;45.332;10.230;2023-05-07T04:04:09;22.33;;;17.90;;
45764;SDS011;31474;45.332;10.230;2023-05-07T04:06:35;26.95;;;18.70;;
45764;SDS011;31474;45.332;10.230;2023-05-07T04:09:00;26.38;;;18.05;;
45764;SDS011;31474;45.332;10.230;2023-05-07T04:11:26;22.42;;;17.42;;
45764;SDS011;31474;45.332;10.230;2023-05-07T04:13:52;21.60;;;17.70;;
45764;SDS011;31474;45.332;10.230;2023-05-07T04:16:17;22.17;;;18.05;;
45764;SDS011;31474;45.332;10.230;2023-05-07T04:18:43;23.83;;;18.25;;
45764;SDS011;31474;45.332;10.230;2023-05-07T04:21:18;22.75;;;17.60;;
45764;SDS011;31474;45.332;10.230;2023-05-07T04:23:45;23.38;;;17.98;;
45764;SDS011;31474;45.332;10.230;2023-05-07T04:26:12;25.48;;;17.42;;
45764;SDS011;31474;45.332;10.230;2023-05-07T04:28:38;24.90;;;18.10;;
45764;SDS011;31474;45.332;10.230;2023-05-07T04:31:04;26.45;;;19.52;;
45764;SDS011;31474;45.332;10.230;2023-05-07T04:33:30;23.08;;;17.52;;
45764;SDS011;31474;45.332;10.230;2023-05-07T04:35:56;20.85;;;17.73;;
45764;SDS011;31474;45.332;10.230;2023-05-07T04:38:22;20.15;;;17.10;;
45764;SDS011;31474;45.332;10.230;2023-05-07T04:40:48;23.38;;;16.65;;
45764;SDS011;31474;45.332;10.230;2023-05-07T04:43:14;19.20;;;15.93;;
45764;SDS011;31474;45.332;10.230;2023-05-07T04:45:41;24.13;;;16.70;;
45764;SDS011;31474;45.332;10.230;2023-05-07T04:48:06;22.17;;;16.38;;
45764;SDS011;31474;45.332;10.230;2023-05-07T04:50:33;23.52;;;17.27;;
45764;SDS011;31474;45.332;10.230;2023-05-07T04:52:59;21.63;;;15.95;;
45764;SDS011;31474;45.332;10.230;2023-05-07T04:55:25;22.10;;;15.57;;
45764;SDS011;31474;45.332;10.230;2023-05-07T04:57:51;19.42;;;14.55;;
45764;SDS011;31474;45.332;10.230;2023-05-07T05:00:17;20.30;;;14.65;;
45764;SDS011;31474;45.332;10.230;2023-05-07T05:02:44;15.88;;;14.13;;
45764;SDS011;31474;45.332;10.230;2023-05-07T05:05:10;19.20;;;15.18;;
45764;SDS011;31474;45.332;10.230;2023-05-07T05:07:36;17.60;;;13.07;;
45764;SDS011;31474;45.332;10.230;2023-05-07T05:10:02;13.88;;;11.25;;
45764;SDS011;31474;45.332;10.230;2023-05-07T05:12:30;14.88;;;12.18;;
45764;SDS011;31474;45.332;10.230;2023-05-07T05:14:56;11.63;;;9.65;;
45764;SDS011;31474;45.332;10.230;2023-05-07T05:17:22;10.57;;;8.73;;
45764;SDS011;31474;45.332;10.230;2023-05-07T05:19:48;11.85;;;7.82;;
45764;SDS011;31474;45.332;10.230;2023-05-07T05:22:13;11.88;;;6.68;;
45764;SDS011;31474;45.332;10.230;2023-05-07T05:24:40;8.15;;;6.22;;
45764;SDS011;31474;45.332;10.230;2023-05-07T05:27:05;6.35;;;4.93;;
45764;SDS011;31474;45.332;10.230;2023-05-07T05:29:31;6.50;;;4.20;;
45764;SDS011;31474;45.332;10.230;2023-05-07T05:31:57;5.47;;;4.05;;
45764;SDS011;31474;45.332;10.230;2023-05-07T05:34:22;5.07;;;3.53;;
45764;SDS011;31474;45.332;10.230;2023-05-07T05:36:48;5.15;;;3.55;;
45764;SDS011;31474;45.332;10.230;2023-05-07T05:39:13;5.43;;;3.55;;
45764;SDS011;31474;45.332;10.230;2023-05-07T05:41:39;6.93;;;4.20;;
45764;SDS011;31474;45.332;10.230;2023-05-07T05:44:05;9.38;;;4.20;;
45764;SDS011;31474;45.332;10.230;2023-05-07T05:46:31;4.90;;;3.20;;
45764;SDS011;31474;45.332;10.230;2023-05-07T05:48:56;5.25;;;4.38;;
45764;SDS011;31474;45.332;10.230;2023-05-07T05:51:22;4.22;;;3.35;;
45764;SDS011;31474;45.332;10.230;2023-05-07T05:53:48;4.40;;;3.20;;
45764;SDS011;31474;45.332;10.230;2023-05-07T05:56:14;3.15;;;2.85;;
45764;SDS011;31474;45.332;10.230;2023-05-07T05:58:40;6.93;;;3.58;;
45764;SDS011;31474;45.332;10.230;2023-05-07T06:01:06;6.00;;;2.70;;
45764;SDS011;31474;45.332;10.230;2023-05-07T06:03:32;5.95;;;3.03;;
45764;SDS011;31474;45.332;10.230;2023-05-07T06:05:58;6.75;;;3.20;;
45764;SDS011;31474;45.332;10.230;2023-05-07T06:08:24;4.18;;;2.28;;
45764;SDS011;31474;45.332;10.230;2023-05-07T06:10:50;4.82;;;2.60;;
45764;SDS011;31474;45.332;10.230;2023-05-07T06:13:16;3.03;;;2.33;;
45764;SDS011;31474;45.332;10.230;2023-05-07T06:15:42;2.60;;;2.30;;
45764;SDS011;31474;45.332;10.230;2023-05-07T06:18:07;2.30;;;2.03;;
45764;SDS011;31474;45.332;10.230;2023-05-07T06:20:33;2.47;;;1.75;;
45764;SDS011;31474;45.332;10.230;2023-05-07T06:22:59;5.25;;;2.22;;
45764;SDS011;31474;45.332;10.230;2023-05-07T06:25:24;1.75;;;1.42;;
45764;SDS011;31474;45.332;10.230;2023-05-07T06:27:50;2.10;;;1.55;;
45764;SDS011;31474;45.332;10.230;2023-05-07T06:30:16;3.80;;;2.25;;
45764;SDS011;31474;45.332;10.230;2023-05-07T06:32:41;3.97;;;2.10;;
45764;SDS011;31474;45.332;10.230;2023-05-07T06:35:07;3.08;;;1.95;;
45764;SDS011;31474;45.332;10.230;2023-05-07T06:37:33;2.83;;;2.33;;
45764;SDS011;31474;45.332;10.230;2023-05-07T06:39:58;4.30;;;2.20;;
45764;SDS011;31474;45.332;10.230;2023-05-07T06:42:24;5.30;;;2.10;;
45764;SDS011;31474;45.332;10.230;2023-05-07T06:44:50;4.05;;;2.38;;
45764;SDS011;31474;45.332;10.230;2023-05-07T06:47:15;2.67;;;2.35;;
45764;SDS011;31474;45.332;10.230;2023-05-07T06:49:41;2.65;;;2.45;;
45764;SDS011;31474;45.332;10.230;2023-05-07T06:52:07;4.47;;;2.50;;
45764;SDS011;31474;45.332;10.230;2023-05-07T06:54:32;3.97;;;2.75;;
45764;SDS011;31474;45.332;10.230;2023-05-07T06:56:58;8.48;;;2.40;;
45764;SDS011;31474;45.332;10.230;2023-05-07T06:59:24;3.15;;;2.40;;
45764;SDS011;31474;45.332;10.230;2023-05-07T07:01:49;3.83;;;2.22;;
45764;SDS011;31474;45.332;10.230;2023-05-07T07:04:15;5.78;;;2.45;;
45764;SDS011;31474;45.332;10.230;2023-05-07T07:06:41;2.90;;;2.55;;
45764;SDS011;31474;45.332;10.230;2023-05-07T07:09:06;2.97;;;2.47;;
45764;SDS011;31474;45.332;10.230;2023-05-07T07:11:32;6.45;;;2.50;;
45764;SDS011;31474;45.332;10.230;2023-05-07T07:13:58;4.38;;;2.80;;
45764;SDS011;31474;45.332;10.230;2023-05-07T07:16:24;4.90;;;3.85;;
45764;SDS011;31474;45.332;10.230;2023-05-07T07:18:49;6.68;;;5.28;;
45764;SDS011;31474;45.332;10.230;2023-05-07T07:21:15;7.50;;;5.75;;
45764;SDS011;31474;45.332;10.230;2023-05-07T07:23:41;7.90;;;6.13;;
45764;SDS011;31474;45.332;10.230;2023-05-07T07:26:07;13.18;;;6.43;;
45764;SDS011;31474;45.332;10.230;2023-05-07T07:28:32;7.70;;;6.30;;
45764;SDS011;31474;45.332;10.230;2023-05-07T07:30:58;8.93;;;6.47;;
45764;SDS011;31474;45.332;10.230;2023-05-07T07:33:23;8.43;;;5.68;;
45764;SDS011;31474;45.332;10.230;2023-05-07T07:35:49;8.65;;;6.25;;
45764;SDS011;31474;45.332;10.230;2023-05-07T07:38:15;8.30;;;6.53;;
45764;SDS011;31474;45.332;10.230;2023-05-07T07:40:40;6.90;;;5.60;;
45764;SDS011;31474;45.332;10.230;2023-05-07T07:43:06;8.93;;;5.47;;
45764;SDS011;31474;45.332;10.230;2023-05-07T07:45:32;8.20;;;5.82;;
45764;SDS011;31474;45.332;10.230;2023-05-07T07:47:57;7.72;;;4.95;;
45764;SDS011;31474;45.332;10.230;2023-05-07T07:50:23;7.50;;;5.22;;
45764;SDS011;31474;45.332;10.230;2023-05-07T07:52:48;6.32;;;5.30;;
45764;SDS011;31474;45.332;10.230;2023-05-07T07:55:14;6.95;;;5.22;;
45764;SDS011;31474;45.332;10.230;2023-05-07T07:57:45;6.20;;;5.38;;
45764;SDS011;31474;45.332;10.230;2023-05-07T08:00:11;9.63;;;6.55;;
45764;SDS011;31474;45.332;10.230;2023-05-07T08:02:37;7.78;;;6.45;;
45764;SDS011;31474;45.332;10.230;2023-05-07T08:05:03;6.47;;;5.75;;
45764;SDS011;31474;45.332;10.230;2023-05-07T08:07:29;9.55;;;6.47;;
45764;SDS011;31474;45.332;10.230;2023-05-07T08:09:55;7.88;;;6.95;;
45764;SDS011;31474;45.332;10.230;2023-05-07T08:12:21;12.32;;;7.10;;
45764;SDS011;31474;45.332;10.230;2023-05-07T08:14:46;12.13;;;6.45;;
45764;SDS011;31474;45.332;10.230;2023-05-07T08:17:12;10.85;;;7.25;;
45764;SDS011;31474;45.332;10.230;2023-05-07T08:19:40;7.72;;;6.50;;
45764;SDS011;31474;45.332;10.230;2023-05-07T08:22:06;10.00;;;7.28;;
45764;SDS011;31474;45.332;10.230;2023-05-07T08:24:32;10.82;;;8.10;;
45764;SDS011;31474;45.332;10.230;2023-05-07T08:26:57;9.38;;;7.63;;
45764;SDS011;31474;45.332;10.230;2023-05-07T08:29:23;9.07;;;7.07;;
45764;SDS011;31474;45.332;10.230;2023-05-07T08:31:49;8.90;;;6.97;;
45764;SDS011;31474;45.332;10.230;2023-05-07T08:34:14;7.78;;;6.57;;
45764;SDS011;31474;45.332;10.230;2023-05-07T08:36:40;9.48;;;8.15;;
45764;SDS011;31474;45.332;10.230;2023-05-07T08:39:06;10.73;;;7.88;;
45764;SDS011;31474;45.332;10.230;2023-05-07T08:41:32;9.93;;;8.20;;
45764;SDS011;31474;45.332;10.230;2023-05-07T08:43:58;12.80;;;8.35;;
45764;SDS011;31474;45.332;10.230;2023-05-07T08:46:26;13.48;;;8.68;;
45764;SDS011;31474;45.332;10.230;2023-05-07T08:48:56;11.98;;;8.55;;
45764;SDS011;31474;45.332;10.230;2023-05-07T08:51:22;16.77;;;10.80;;
45764;SDS011;31474;45.332;10.230;2023-05-07T08:53:48;14.60;;;9.80;;
45764;SDS011;31474;45.332;10.230;2023-05-07T08:56:14;11.48;;;8.02;;
45764;SDS011;31474;45.332;10.230;2023-05-07T08:58:41;12.27;;;8.00;;
45764;SDS011;31474;45.332;10.230;2023-05-07T09:01:09;14.80;;;8.43;;
45764;SDS011;31474;45.332;10.230;2023-05-07T09:03:37;10.23;;;7.85;;
45764;SDS011;31474;45.332;10.230;2023-05-07T09:06:04;8.88;;;7.13;;
45764;SDS011;31474;45.332;10.230;2023-05-07T09:08:31;8.15;;;6.72;;
45764;SDS011;31474;45.332;10.230;2023-05-07T09:10:58;9.40;;;6.97;;
45764;SDS011;31474;45.332;10.230;2023-05-07T09:13:23;9.63;;;7.10;;
45764;SDS011;31474;45.332;10.230;2023-05-07T09:15:49;7.63;;;6.28;;
45764;SDS011;31474;45.332;10.230;2023-05-07T09:18:15;11.73;;;7.55;;
45764;SDS011;31474;45.332;10.230;2023-05-07T09:20:40;10.38;;;6.60;;
45764;SDS011;31474;45.332;10.230;2023-05-07T09:23:07;9.35;;;7.00;;
45764;SDS011;31474;45.332;10.230;2023-05-07T09:25:33;6.45;;;5.80;;
45764;SDS011;31474;45.332;10.230;2023-05-07T09:28:00;8.88;;;4.90;;
45764;SDS011;31474;45.332;10.230;2023-05-07T09:30:28;7.68;;;4.68;;
45764;SDS011;31474;45.332;10.230;2023-05-07T09:32:54;6.32;;;5.07;;
45764;SDS011;31474;45.332;10.230;2023-05-07T09:35:21;7.80;;;5.18;;
45764;SDS011;31474;45.332;10.230;2023-05-07T09:37:49;7.30;;;4.70;;
45764;SDS011;31474;45.332;10.230;2023-05-07T09:40:48;9.18;;;4.82;;
45764;SDS011;31474;45.332;10.230;2023-05-07T09:43:10;5.30;;;4.55;;
45764;SDS011;31474;45.332;10.230;2023-05-07T09:45:37;6.10;;;4.97;;
45764;SDS011;31474;45.332;10.230;2023-05-07T09:48:04;11.35;;;4.63;;
45764;SDS011;31474;45.332;10.230;2023-05-07T09:50:35;6.97;;;4.18;;
45764;SDS011;31474;45.332;10.230;2023-05-07T09:53:05;5.28;;;4.35;;
45764;SDS011;31474;45.332;10.230;2023-05-07T09:55:31;8.43;;;5.43;;
45764;SDS011;31474;45.332;10.230;2023-05-07T09:57:57;5.55;;;4.22;;
45764;SDS011;31474;45.332;10.230;2023-05-07T10:00:24;6.72;;;4.70;;
45764;SDS011;31474;45.332;10.230;2023-05-07T10:02:52;5.57;;;4.47;;
45764;SDS011;31474;45.332;10.230;2023-05-07T10:05:18;5.93;;;4.32;;
45764;SDS011;31474;45.332;10.230;2023-05-07T10:07:47;6.90;;;5.00;;
45764;SDS011;31474;45.332;10.230;2023-05-07T10:10:14;6.68;;;5.25;;
45764;SDS011;31474;45.332;10.230;2023-05-07T10:12:40;6.75;;;4.25;;
45764;SDS011;31474;45.332;10.230;2023-05-07T10:15:10;9.18;;;5.47;;
45764;SDS011;31474;45.332;10.230;2023-05-07T10:17:37;5.20;;;4.47;;
45764;SDS011;31474;45.332;10.230;2023-05-07T10:20:04;8.45;;;5.35;;
45764;SDS011;31474;45.332;10.230;2023-05-07T10:22:36;9.52;;;5.40;;
45764;SDS011;31474;45.332;10.230;2023-05-07T10:25:04;6.20;;;4.78;;
45764;SDS011;31474;45.332;10.230;2023-05-07T10:27:38;7.18;;;5.53;;
45764;SDS011;31474;45.332;10.230;2023-05-07T10:30:12;6.68;;;5.53;;
45764;SDS011;31474;45.332;10.230;2023-05-07T10:32:56;6.43;;;5.68;;
45764;SDS011;31474;45.332;10.230;2023-05-07T10:35:31;7.05;;;6.07;;
45764;SDS011;31474;45.332;10.230;2023-05-07T10:38:01;6.63;;;5.85;;
45764;SDS011;31474;45.332;10.230;2023-05-07T10:40:27;7.55;;;5.63;;
45764;SDS011;31474;45.332;10.230;2023-05-07T10:42:56;6.40;;;5.15;;
45764;SDS011;31474;45.332;10.230;2023-05-07T10:45:24;8.45;;;5.88;;
45764;SDS011;31474;45.332;10.230;2023-05-07T10:50:39;9.95;;;5.90;;
45764;SDS011;31474;45.332;10.230;2023-05-07T10:55:46;6.22;;;5.03;;
45764;SDS011;31474;45.332;10.230;2023-05-07T11:01:01;6.85;;;5.97;;
45764;SDS011;31474;45.332;10.230;2023-05-07T11:03:27;12.02;;;5.47;;
45764;SDS011;31474;45.332;10.230;2023-05-07T11:08:57;6.95;;;5.63;;
45764;SDS011;31474;45.332;10.230;2023-05-07T11:12:05;9.05;;;5.68;;
45764;SDS011;31474;45.332;10.230;2023-05-07T11:14:13;6.00;;;5.32;;
45764;SDS011;31474;45.332;10.230;2023-05-07T11:17:02;8.95;;;5.85;;
45764;SDS011;31474;45.332;10.230;2023-05-07T11:25:00;6.93;;;5.85;;
45764;SDS011;31474;45.332;10.230;2023-05-07T11:27:30;7.43;;;5.97;;
45764;SDS011;31474;45.332;10.230;2023-05-07T11:29:56;8.95;;;6.70;;
45764;SDS011;31474;45.332;10.230;2023-05-07T11:32:23;6.78;;;5.60;;
45764;SDS011;31474;45.332;10.230;2023-05-07T11:34:52;7.78;;;6.22;;
45764;SDS011;31474;45.332;10.230;2023-05-07T11:37:18;6.55;;;5.53;;
45764;SDS011;31474;45.332;10.230;2023-05-07T11:39:45;6.65;;;5.80;;
45764;SDS011;31474;45.332;10.230;2023-05-07T11:42:30;6.90;;;4.93;;
45764;SDS011;31474;45.332;10.230;2023-05-07T11:44:57;7.25;;;5.22;;
45764;SDS011;31474;45.332;10.230;2023-05-07T11:47:24;7.15;;;5.22;;
45764;SDS011;31474;45.332;10.230;2023-05-07T11:49:53;6.85;;;5.63;;
45764;SDS011;31474;45.332;10.230;2023-05-07T11:52:20;5.57;;;4.90;;
45764;SDS011;31474;45.332;10.230;2023-05-07T11:54:54;10.82;;;6.28;;
45764;SDS011;31474;45.332;10.230;2023-05-07T11:57:25;8.05;;;6.20;;
45764;SDS011;31474;45.332;10.230;2023-05-07T11:59:54;9.25;;;5.95;;
45764;SDS011;31474;45.332;10.230;2023-05-07T12:02:21;8.88;;;5.63;;
45764;SDS011;31474;45.332;10.230;2023-05-07T12:04:47;8.43;;;6.75;;
45764;SDS011;31474;45.332;10.230;2023-05-07T12:07:13;7.65;;;6.03;;
45764;SDS011;31474;45.332;10.230;2023-05-07T12:09:40;6.95;;;6.07;;
45764;SDS011;31474;45.332;10.230;2023-05-07T12:12:06;11.52;;;6.85;;
45764;SDS011;31474;45.332;10.230;2023-05-07T12:14:32;9.40;;;6.68;;
45764;SDS011;31474;45.332;10.230;2023-05-07T12:17:02;8.55;;;6.30;;
45764;SDS011;31474;45.332;10.230;2023-05-07T12:19:29;8.85;;;6.68;;
45764;SDS011;31474;45.332;10.230;2023-05-07T12:21:55;7.32;;;6.22;;
45764;SDS011;31474;45.332;10.230;2023-05-07T12:24:21;7.63;;;5.00;;
45764;SDS011;31474;45.332;10.230;2023-05-07T12:26:47;6.28;;;5.38;;
45764;SDS011;31474;45.332;10.230;2023-05-07T12:29:13;7.03;;;5.13;;
45764;SDS011;31474;45.332;10.230;2023-05-07T12:31:42;7.28;;;5.60;;
45764;SDS011;31474;45.332;10.230;2023-05-07T12:34:10;9.75;;;6.30;;
45764;SDS011;31474;45.332;10.230;2023-05-07T12:36:39;8.27;;;6.45;;
45764;SDS011;31474;45.332;10.230;2023-05-07T12:39:08;8.07;;;5.88;;
45764;SDS011;31474;45.332;10.230;2023-05-07T12:41:53;8.65;;;5.50;;
45764;SDS011;31474;45.332;10.230;2023-05-07T12:44:23;8.52;;;5.28;;
45764;SDS011;31474;45.332;10.230;2023-05-07T12:46:49;9.38;;;5.38;;
45764;SDS011;31474;45.332;10.230;2023-05-07T12:49:15;6.90;;;6.20;;
45764;SDS011;31474;45.332;10.230;2023-05-07T12:51:42;7.78;;;6.20;;
45764;SDS011;31474;45.332;10.230;2023-05-07T12:54:08;7.32;;;5.75;;
45764;SDS011;31474;45.332;10.230;2023-05-07T12:56:37;7.18;;;6.15;;
45764;SDS011;31474;45.332;10.230;2023-05-07T12:59:05;7.57;;;5.50;;
45764;SDS011;31474;45.332;10.230;2023-05-07T13:01:31;8.30;;;5.72;;
45764;SDS011;31474;45.332;10.230;2023-05-07T13:04:02;7.63;;;6.25;;
45764;SDS011;31474;45.332;10.230;2023-05-07T13:06:29;6.65;;;5.35;;
45764;SDS011;31474;45.332;10.230;2023-05-07T13:08:56;8.27;;;4.43;;
45764;SDS011;31474;45.332;10.230;2023-05-07T13:11:21;6.03;;;5.38;;
45764;SDS011;31474;45.332;10.230;2023-05-07T13:13:48;6.30;;;5.32;;
45764;SDS011;31474;45.332;10.230;2023-05-07T13:16:13;8.35;;;5.78;;
45764;SDS011;31474;45.332;10.230;2023-05-07T13:18:39;6.95;;;5.40;;
45764;SDS011;31474;45.332;10.230;2023-05-07T13:21:05;10.00;;;5.00;;
45764;SDS011;31474;45.332;10.230;2023-05-07T13:23:31;8.52;;;4.95;;
45764;SDS011;31474;45.332;10.230;2023-05-07T13:25:57;7.95;;;4.63;;
45764;SDS011;31474;45.332;10.230;2023-05-07T13:28:23;5.40;;;4.25;;
45764;SDS011;31474;45.332;10.230;2023-05-07T13:30:49;5.82;;;4.70;;
45764;SDS011;31474;45.332;10.230;2023-05-07T13:33:16;6.15;;;4.63;;
45764;SDS011;31474;45.332;10.230;2023-05-07T13:35:42;7.72;;;5.00;;
45764;SDS011;31474;45.332;10.230;2023-05-07T13:38:08;13.02;;;6.25;;
45764;SDS011;31474;45.332;10.230;2023-05-07T13:40:34;6.20;;;5.30;;
45764;SDS011;31474;45.332;10.230;2023-05-07T13:42:59;9.13;;;5.90;;
45764;SDS011;31474;45.332;10.230;2023-05-07T13:45:27;12.20;;;5.97;;
45764;SDS011;31474;45.332;10.230;2023-05-07T13:47:54;6.88;;;5.53;;
45764;SDS011;31474;45.332;10.230;2023-05-07T13:50:20;10.63;;;5.95;;
45764;SDS011;31474;45.332;10.230;2023-05-07T13:52:46;6.63;;;5.78;;
45764;SDS011;31474;45.332;10.230;2023-05-07T13:55:18;9.13;;;6.00;;
45764;SDS011;31474;45.332;10.230;2023-05-07T13:57:45;7.30;;;5.32;;
45764;SDS011;31474;45.332;10.230;2023-05-07T14:00:12;9.15;;;5.93;;
45764;SDS011;31474;45.332;10.230;2023-05-07T14:02:38;6.78;;;5.57;;
45764;SDS011;31474;45.332;10.230;2023-05-07T14:05:04;6.63;;;5.30;;
45764;SDS011;31474;45.332;10.230;2023-05-07T14:07:30;9.90;;;6.30;;
45764;SDS011;31474;45.332;10.230;2023-05-07T14:09:56;6.07;;;4.82;;
45764;SDS011;31474;45.332;10.230;2023-05-07T14:12:22;11.15;;;5.75;;
45764;SDS011;31474;45.332;10.230;2023-05-07T14:14:48;9.15;;;5.25;;
45764;SDS011;31474;45.332;10.230;2023-05-07T14:17:15;7.63;;;5.50;;
45764;SDS011;31474;45.332;10.230;2023-05-07T14:19:43;7.45;;;5.20;;
45764;SDS011;31474;45.332;10.230;2023-05-07T14:22:09;4.97;;;4.20;;
45764;SDS011;31474;45.332;10.230;2023-05-07T14:24:35;5.30;;;3.80;;
45764;SDS011;31474;45.332;10.230;2023-05-07T14:27:01;5.07;;;4.38;;
45764;SDS011;31474;45.332;10.230;2023-05-07T14:29:27;5.57;;;4.03;;
45764;SDS011;31474;45.332;10.230;2023-05-07T14:31:53;4.72;;;4.13;;
45764;SDS011;31474;45.332;10.230;2023-05-07T14:34:18;7.20;;;4.18;;
45764;SDS011;31474;45.332;10.230;2023-05-07T14:36:44;6.07;;;3.38;;
45764;SDS011;31474;45.332;10.230;2023-05-07T14:39:10;3.42;;;3.13;;